Time;durP1;ratioP1;P1;durP2;ratioP2;P2;SDS_P1;SDS_P2;PMS_P1;PMS_P2;Temp;Humidity;BMP_temperature;BMP_pressure;BME280_temperature;BME280_humidity;BME280_pressure;Samples;Min_cycle;Max_cycle;Signal;HPM_P1;HPM_P2
2023/06/10 00:01:49;;;;;;;8.57;7.07;;;;;;;16.52;100.00;99939.41;5587302;31;33870;-67
2023/06/10 00:04:55;;;;;;;8.52;6.90;;;;;;;16.62;100.00;99949.66;5587638;31;33631;-69
2023/06/10 00:08:06;;;;;;;9.15;6.47;;;;;;;16.59;100.00;99938.56;5587454;31;34526;-67
2023/06/10 00:11:12;;;;;;;10.02;6.70;;;;;;;16.52;100.00;99943.94;5587094;31;33956;-70
2023/06/10 00:14:16;;;;;;;10.43;6.90;;;;;;;16.44;100.00;99937.00;5587212;31;34200;-67
2023/06/10 00:17:23;;;;;;;11.55;6.60;;;;;;;16.43;100.00;99930.00;5587222;31;33636;-67
2023/06/10 00:20:28;;;;;;;9.30;6.55;;;;;;;16.36;100.00;99931.09;5586215;31;34593;-67
2023/06/10 00:23:37;;;;;;;7.50;6.25;;;;;;;16.32;100.00;99937.91;5587119;31;33909;-66
2023/06/10 00:26:42;;;;;;;9.13;6.30;;;;;;;16.22;100.00;99932.19;5586982;31;33810;-67
2023/06/10 00:29:47;;;;;;;10.77;6.68;;;;;;;16.18;100.00;99928.31;5586930;31;33734;-66
2023/06/10 00:32:52;;;;;;;7.80;7.00;;;;;;;16.13;100.00;99930.81;5587059;31;33996;-69
2023/06/10 00:35:57;;;;;;;17.00;7.00;;;;;;;16.10;100.00;99929.38;5587325;31;33509;-67
2023/06/10 00:39:04;;;;;;;8.48;6.40;;;;;;;16.05;100.00;99931.87;5586914;31;33827;-67
2023/06/10 00:42:10;;;;;;;7.10;6.40;;;;;;;16.00;100.00;99934.38;5586978;31;34269;-67
2023/06/10 00:45:15;;;;;;;12.45;6.97;;;;;;;16.00;100.00;99934.38;5586922;31;33815;-67
2023/06/10 00:48:20;;;;;;;12.35;6.87;;;;;;;15.97;100.00;99930.28;5585947;31;33942;-67
2023/06/10 00:51:25;;;;;;;11.10;7.05;;;;;;;15.99;100.00;99940.75;5586708;31;34927;-67
2023/06/10 00:54:32;;;;;;;10.27;6.87;;;;;;;15.99;100.00;99944.25;5586916;31;33785;-67
2023/06/10 00:57:38;;;;;;;10.98;6.72;;;;;;;15.95;100.00;99953.75;5586950;31;34017;-67
2023/06/10 01:00:45;;;;;;;13.30;7.22;;;;;;;15.92;100.00;99943.47;5586627;31;33868;-67
2023/06/10 01:03:50;;;;;;;12.77;7.05;;;;;;;15.87;100.00;99951.31;5586770;31;34002;-68
2023/06/10 01:06:58;;;;;;;11.38;6.97;;;;;;;15.89;100.00;99949.25;5586838;31;33823;-67
2023/06/10 01:10:12;;;;;;;12.88;7.35;;;;;;;15.95;100.00;99950.25;5585810;31;33837;-67
2023/06/10 01:13:17;;;;;;;9.68;6.97;;;;;;;15.90;100.00;99942.03;5586639;31;34163;-67
2023/06/10 01:16:23;;;;;;;9.05;6.35;;;;;;;15.82;100.00;99948.47;5586612;31;34038;-67
2023/06/10 01:19:28;;;;;;;12.48;7.07;;;;;;;15.81;100.00;99946.81;5586539;31;33916;-67
2023/06/10 01:22:32;;;;;;;10.90;6.97;;;;;;;15.80;100.00;99945.16;5586423;31;34286;-67
2023/06/10 01:25:45;;;;;;;17.52;7.50;;;;;;;15.74;100.00;99942.50;5586464;31;34660;-68
2023/06/10 01:28:57;;;;;;;11.93;6.90;;;;;;;15.79;100.00;99948.88;5586405;31;34325;-67
2023/06/10 01:32:12;;;;;;;8.80;7.20;;;;;;;15.79;100.00;99938.16;5586258;31;33765;-67
2023/06/10 01:35:18;;;;;;;16.10;6.60;;;;;;;15.77;100.00;99942.94;5572460;31;33969;-67
2023/06/10 01:38:26;;;;;;;12.52;6.78;;;;;;;15.72;100.00;99940.06;5573369;31;34027;-67
2023/06/10 01:41:32;;;;;;;11.77;7.03;;;;;;;15.67;100.00;99944.41;5586123;31;34859;-67
2023/06/10 01:44:38;;;;;;;9.45;6.53;;;;;;;15.63;100.00;99942.16;5586244;31;34866;-67
2023/06/10 01:47:44;;;;;;;10.40;6.50;;;;;;;15.62;100.00;99945.03;5586137;31;34000;-67
2023/06/10 01:50:49;;;;;;;11.63;7.15;;;;;;;15.55;100.00;99947.72;5585918;31;34487;-67
2023/06/10 01:53:54;;;;;;;12.02;7.35;;;;;;;15.48;100.00;99938.88;5586199;31;34360;-67
2023/06/10 01:56:59;;;;;;;9.25;6.97;;;;;;;15.44;100.00;99945.66;5578979;31;33884;-67
2023/06/10 02:00:05;;;;;;;10.40;7.25;;;;;;;15.42;100.00;99942.38;5580575;31;34511;-67
2023/06/10 02:03:18;;;;;;;10.35;7.18;;;;;;;15.39;100.00;99950.84;5585851;31;33950;-67
2023/06/10 02:06:23;;;;;;;12.37;6.43;;;;;;;15.41;100.00;99947.94;5585859;31;33800;-67
2023/06/10 02:09:27;;;;;;;13.77;6.10;;;;;;;15.50;100.00;99944.81;5585805;31;33649;-67
2023/06/10 02:12:34;;;;;;;10.90;6.40;;;;;;;15.49;100.00;99945.06;5584690;31;34896;-67
2023/06/10 02:15:39;;;;;;;8.95;6.22;;;;;;;15.48;100.00;99944.22;5585550;31;34131;-67
2023/06/10 02:18:44;;;;;;;13.57;7.18;;;;;;;15.61;100.00;99954.09;5585549;31;33924;-67
2023/06/10 02:21:49;;;;;;;11.73;7.50;;;;;;;15.48;100.00;99954.94;5585491;31;34015;-67
2023/06/10 02:24:55;;;;;;;11.02;7.50;;;;;;;15.46;100.00;99951.62;5585332;31;34354;-67
2023/06/10 02:28:00;;;;;;;11.40;7.30;;;;;;;15.42;100.00;99952.25;5585504;31;33330;-67
2023/06/10 02:31:05;;;;;;;9.18;7.43;;;;;;;15.35;100.00;99956.78;5584583;31;33694;-67
2023/06/10 02:34:09;;;;;;;12.65;7.53;;;;;;;15.33;100.00;99945.50;5585252;31;34907;-67
2023/06/10 02:37:15;;;;;;;10.07;7.62;;;;;;;15.33;100.00;99949.00;5585221;31;33828;-67
2023/06/10 02:40:20;;;;;;;11.68;7.10;;;;;;;15.33;100.00;99948.16;5585200;31;34300;-67
2023/06/10 02:43:25;;;;;;;9.55;7.72;;;;;;;15.34;100.00;99947.16;5586424;31;34752;-67
2023/06/10 02:46:30;;;;;;;9.57;7.18;;;;;;;15.40;100.00;99949.78;5588018;31;34496;-67
2023/06/10 02:49:36;;;;;;;10.23;7.60;;;;;;;15.46;100.00;99950.81;5587839;31;33983;-67
2023/06/10 02:52:42;;;;;;;9.75;7.37;;;;;;;15.50;100.00;99947.50;5587936;31;33686;-67
2023/06/10 02:55:47;;;;;;;9.13;7.57;;;;;;;15.57;100.00;99959.03;5588248;31;33949;-67
2023/06/10 02:58:52;;;;;;;10.45;7.20;;;;;;;15.63;100.00;99960.06;5587822;31;33891;-67
2023/06/10 03:02:01;;;;;;;11.80;6.82;;;;;;;15.74;100.00;99959.38;5587811;31;34593;-67
2023/06/10 03:05:09;;;;;;;10.75;6.70;;;;;;;15.92;100.00;99964.06;5587815;31;34014;-67
2023/06/10 03:08:16;;;;;;;8.20;6.30;;;;;;;15.92;100.00;99956.88;5587819;31;34361;-67
2023/06/10 03:11:21;;;;;;;10.20;6.60;;;;;;;15.91;100.00;99968.59;5588033;31;33668;-67
2023/06/10 03:14:26;;;;;;;9.27;7.20;;;;;;;15.94;100.00;99957.44;5587582;31;34012;-67
2023/06/10 03:17:31;;;;;;;10.20;6.35;;;;;;;15.99;100.00;99963.00;5587518;31;33728;-67
2023/06/10 03:20:39;;;;;;;7.10;6.25;;;;;;;16.08;100.00;99967.06;5587168;31;33876;-67
2023/06/10 03:23:44;;;;;;;11.85;6.82;;;;;;;16.08;100.00;99969.72;5586725;31;34364;-68
2023/06/10 03:26:50;;;;;;;8.65;6.45;;;;;;;16.11;100.00;99970.34;5587481;31;33684;-67
2023/06/10 03:29:54;;;;;;;11.10;6.68;;;;;;;16.17;100.00;99975.66;5586719;31;33938;-67
2023/06/10 03:33:00;;;;;;;9.05;6.40;;;;;;;16.16;100.00;99976.72;5587519;31;33865;-67
2023/06/10 03:36:06;;;;;;;12.23;6.50;;;;;;;16.26;100.00;99977.06;5587503;31;34856;-67
2023/06/10 03:39:12;;;;;;;10.50;6.32;;;;;;;16.31;100.00;99982.59;5587544;31;34901;-67
2023/06/10 03:42:17;;;;;;;9.57;6.07;;;;;;;16.37;100.00;99978.22;5587385;31;33784;-67
2023/06/10 03:45:23;;;;;;;9.75;5.95;;;;;;;16.42;100.00;99973.03;5587358;31;34070;-67
2023/06/10 03:48:27;;;;;;;14.05;6.20;;;;;;;16.42;100.00;99970.37;5586652;31;33789;-68
2023/06/10 03:51:31;;;;;;;6.78;6.15;;;;;;;16.42;100.00;99973.88;5587349;31;34302;-67
2023/06/10 03:54:36;;;;;;;8.93;5.90;;;;;;;16.39;100.00;99970.81;5585899;31;33816;-67
2023/06/10 03:57:42;;;;;;;8.52;6.20;;;;;;;16.39;100.00;99968.97;5586563;31;33737;-67
2023/06/10 04:00:47;;;;;;;8.88;5.97;;;;;;;16.34;100.00;99968.78;5587209;31;34726;-67
2023/06/10 04:03:53;;;;;;;8.63;6.30;;;;;;;16.29;100.00;99963.25;5587312;31;33663;-67
2023/06/10 04:06:59;;;;;;;10.65;6.30;;;;;;;16.29;100.00;99968.59;5587530;31;33951;-68
2023/06/10 04:10:05;;;;;;;6.32;5.68;;;;;;;16.27;100.00;99970.66;5587222;31;33911;-68
2023/06/10 04:13:10;;;;;;;11.63;5.80;;;;;;;16.22;100.00;99957.09;5587181;31;33897;-67
2023/06/10 04:16:16;;;;;;;7.05;5.65;;;;;;;16.19;100.00;99965.56;5587122;31;34863;-67
2023/06/10 04:19:22;;;;;;;7.10;5.47;;;;;;;16.20;100.00;99966.38;5587510;31;34767;-67
2023/06/10 04:22:28;;;;;;;7.35;5.50;;;;;;;16.17;100.00;99967.62;5587019;31;33942;-67
2023/06/10 04:25:34;;;;;;;9.32;5.80;;;;;;;16.17;100.00;99964.16;5586974;31;34554;-68
2023/06/10 04:28:39;;;;;;;9.73;5.78;;;;;;;16.18;100.00;99968.44;5587122;31;34326;-67
2023/06/10 04:31:46;;;;;;;6.90;5.53;;;;;;;16.15;100.00;99975.06;5586934;31;33939;-68
2023/06/10 04:34:51;;;;;;;10.38;5.47;;;;;;;16.15;100.00;99979.59;5587025;31;34625;-67
2023/06/10 04:37:57;;;;;;;10.57;6.15;;;;;;;16.32;100.00;99978.03;5586168;31;33992;-67
2023/06/10 04:41:02;;;;;;;8.75;5.68;;;;;;;16.43;100.00;99977.38;5586830;31;34209;-68
2023/06/10 04:44:07;;;;;;;14.90;6.22;;;;;;;16.33;100.00;99969.81;5586959;31;34860;-67
2023/06/10 04:47:12;;;;;;;12.50;7.22;;;;;;;16.28;100.00;99971.47;5586581;31;34197;-68
2023/06/10 04:50:18;;;;;;;10.77;8.27;;;;;;;16.22;100.00;99975.84;5586810;31;33921;-67
2023/06/10 04:53:22;;;;;;;10.30;7.03;;;;;;;16.23;100.00;99974.81;5586906;31;33836;-68
2023/06/10 04:56:28;;;;;;;12.50;6.10;;;;;;;16.24;100.00;99973.78;5586865;31;34137;-67
2023/06/10 04:59:37;;;;;;;7.12;5.35;;;;;;;16.18;100.00;99958.56;5586941;31;34614;-67
2023/06/10 05:02:41;;;;;;;7.05;5.30;;;;;;;16.22;100.00;99961.63;5583486;31;33710;-67
2023/06/10 05:05:46;;;;;;;7.12;5.55;;;;;;;16.25;100.00;99955.87;5585283;31;33967;-68
2023/06/10 05:08:51;;;;;;;5.50;4.97;;;;;;;16.39;100.00;99965.47;5586483;31;34559;-68
2023/06/10 05:11:55;;;;;;;7.93;4.40;;;;;;;16.39;100.00;99963.59;5586989;31;33900;-67
2023/06/10 05:15:01;;;;;;;7.03;4.62;;;;;;;16.25;100.00;99966.56;5586779;31;33776;-67
2023/06/10 05:18:05;;;;;;;7.10;4.45;;;;;;;16.39;100.00;99968.97;5585201;31;33927;-67
2023/06/10 05:21:10;;;;;;;6.05;4.20;;;;;;;16.49;100.00;99965.81;5583638;31;33834;-67
2023/06/10 05:24:15;;;;;;;5.75;4.43;;;;;;;16.54;100.00;99974.00;5586392;31;33581;-67
2023/06/10 05:27:20;;;;;;;7.82;4.10;;;;;;;16.47;100.00;99975.91;5586380;31;34851;-67
2023/06/10 05:30:25;;;;;;;7.47;3.92;;;;;;;16.52;100.00;99978.75;5586464;31;34589;-68
2023/06/10 05:33:30;;;;;;;12.15;4.45;;;;;;;16.50;100.00;99981.66;5586250;31;33857;-67
2023/06/10 05:36:34;;;;;;;6.22;3.92;;;;;;;16.55;100.00;99974.84;5586430;31;33780;-69
2023/06/10 05:39:40;;;;;;;4.68;3.95;;;;;;;16.75;100.00;99983.59;5586501;31;33784;-68
2023/06/10 05:42:44;;;;;;;7.57;4.45;;;;;;;16.90;100.00;99978.72;5586155;31;34138;-68
2023/06/10 05:45:49;;;;;;;5.70;4.15;;;;;;;16.94;100.00;99986.09;5586322;31;33923;-68
2023/06/10 05:48:54;;;;;;;5.65;4.12;;;;;;;17.20;100.00;99993.09;5585994;31;34311;-69
2023/06/10 05:52:00;;;;;;;6.75;3.92;;;;;;;17.64;100.00;99992.06;5586443;31;34658;-68
2023/06/10 05:55:05;;;;;;;7.50;3.53;;;;;;;17.60;100.00;99992.75;5586033;31;34481;-68
2023/06/10 05:58:12;;;;;;;7.18;3.75;;;;;;;17.75;100.00;99987.84;5584920;31;34360;-68
2023/06/10 06:01:17;;;;;;;8.35;3.67;;;;;;;17.83;100.00;99990.19;5568874;31;34794;-68
2023/06/10 06:04:22;;;;;;;8.15;3.90;;;;;;;17.67;100.00;99985.47;5580064;31;34037;-68
2023/06/10 06:07:26;;;;;;;5.60;3.62;;;;;;;17.65;100.00;99987.53;5566509;32;33673;-67
2023/06/10 06:10:30;;;;;;;4.18;3.78;;;;;;;17.67;100.00;99999.66;5565996;32;33713;-69
2023/06/10 06:13:34;;;;;;;4.32;3.83;;;;;;;17.76;100.00;99987.63;5565858;32;34554;-69
2023/06/10 06:16:40;;;;;;;5.90;4.03;;;;;;;17.66;100.00;99992.69;5565863;32;34678;-69
2023/06/10 06:19:45;;;;;;;4.60;4.00;;;;;;;17.35;100.00;99990.91;5568347;32;34616;-67
2023/06/10 06:22:49;;;;;;;7.57;4.32;;;;;;;17.56;100.00;99996.88;5568322;32;34736;-67
2023/06/10 06:25:54;;;;;;;6.12;4.20;;;;;;;17.70;100.00;100003.78;5568516;32;34371;-69
2023/06/10 06:28:59;;;;;;;7.95;4.70;;;;;;;17.91;100.00;100000.63;5568450;32;34652;-68
2023/06/10 06:32:05;;;;;;;6.70;4.78;;;;;;;17.99;100.00;100002.19;5568330;32;34504;-69
2023/06/10 06:35:10;;;;;;;6.43;4.93;;;;;;;18.22;100.00;100008.50;5568277;31;34404;-70
2023/06/10 06:38:15;;;;;;;6.75;4.72;;;;;;;18.08;100.00;100011.59;5570370;31;34611;-69
2023/06/10 06:41:21;;;;;;;7.53;4.60;;;;;;;18.28;100.00;100012.16;5568221;32;34678;-68
2023/06/10 06:44:26;;;;;;;11.70;4.35;;;;;;;18.50;100.00;100010.59;5568214;32;33882;-68
2023/06/10 06:47:31;;;;;;;5.90;4.65;;;;;;;18.39;100.00;100006.03;5584159;31;33858;-68
2023/06/10 06:50:36;;;;;;;5.50;4.65;;;;;;;18.69;100.00;100013.28;5587533;31;34776;-68
2023/06/10 06:53:47;;;;;;;7.45;4.45;;;;;;;18.86;100.00;100014.25;5587741;31;33773;-68
2023/06/10 06:56:51;;;;;;;8.75;4.53;;;;;;;19.06;100.00;100022.84;5587631;31;34602;-69
2023/06/10 06:59:56;;;;;;;6.60;4.50;;;;;;;19.00;100.00;100019.19;5587768;31;34577;-68
2023/06/10 07:03:01;;;;;;;6.85;4.53;;;;;;;19.30;100.00;100013.72;5587937;31;33802;-70
2023/06/10 07:06:05;;;;;;;6.57;5.25;;;;;;;19.15;100.00;100017.94;5587578;31;33558;-69
2023/06/10 07:09:09;;;;;;;6.35;4.43;;;;;;;19.03;100.00;100018.72;5587921;31;34771;-69
2023/06/10 07:12:15;;;;;;;5.78;4.80;;;;;;;19.63;100.00;100023.94;5587486;31;33817;-68
2023/06/10 07:15:20;;;;;;;6.30;4.35;;;;;;;20.21;100.00;100017.59;5587717;31;34479;-69
2023/06/10 07:18:25;;;;;;;10.05;4.60;;;;;;;20.69;100.00;100023.41;5587559;31;33966;-68
2023/06/10 07:21:30;;;;;;;5.15;4.65;;;;;;;21.47;100.00;100024.44;5587620;31;33890;-69
2023/06/10 07:24:34;;;;;;;7.45;4.40;;;;;;;21.69;100.00;100020.72;5587278;31;33630;-69
2023/06/10 07:27:38;;;;;;;9.40;3.90;;;;;;;21.56;100.00;100017.56;5587592;31;33813;-67
2023/06/10 07:30:44;;;;;;;9.90;3.72;;;;;;;22.17;100.00;100018.41;5582838;31;33818;-69
2023/06/10 07:33:48;;;;;;;4.90;3.45;;;;;;;23.41;100.00;100021.75;5573417;31;34683;-70
2023/06/10 07:36:52;;;;;;;4.00;3.60;;;;;;;23.39;100.00;100024.72;5587105;31;33778;-70
2023/06/10 07:39:57;;;;;;;5.18;3.20;;;;;;;23.47;100.00;100020.75;5587215;31;34705;-70
2023/06/10 07:43:03;;;;;;;4.72;3.83;;;;;;;24.29;100.00;100030.13;5586870;31;34699;-70
2023/06/10 07:46:07;;;;;;;6.47;4.20;;;;;;;21.85;100.00;100015.53;5586863;31;34368;-69
2023/06/10 07:49:13;;;;;;;5.65;4.15;;;;;;;22.25;100.00;100020.66;5587277;31;34232;-70
2023/06/10 07:52:17;;;;;;;4.40;4.00;;;;;;;21.98;100.00;100017.88;5586868;31;33793;-68
2023/06/10 07:55:23;;;;;;;6.43;4.47;;;;;;;21.56;100.00;100023.78;5587096;31;33820;-69
2023/06/10 07:58:27;;;;;;;8.15;4.00;;;;;;;21.14;100.00;100036.09;5587296;31;33867;-70
2023/06/10 08:01:33;;;;;;;8.02;4.10;;;;;;;21.47;100.00;100027.16;5586880;31;33943;-69
2023/06/10 08:04:38;;;;;;;6.68;4.50;;;;;;;21.34;100.00;100033.72;5586835;31;34309;-69
2023/06/10 08:07:43;;;;;;;7.03;4.03;;;;;;;21.30;100.00;100031.75;5586710;31;33848;-69
2023/06/10 08:10:49;;;;;;;7.78;4.75;;;;;;;21.09;100.00;100035.97;5580323;31;33967;-69
2023/06/10 08:13:53;;;;;;;7.90;4.40;;;;;;;21.76;100.00;100031.34;5587115;31;33687;-68
2023/06/10 08:16:58;;;;;;;9.77;4.45;;;;;;;22.49;100.00;100022.00;5586966;31;33914;-69
2023/06/10 08:20:03;;;;;;;4.95;4.45;;;;;;;22.18;100.00;100020.84;5586905;31;32892;-68
2023/06/10 08:23:08;;;;;;;5.82;4.90;;;;;;;22.86;100.00;100020.22;5585612;31;33847;-69
2023/06/10 08:26:13;;;;;;;5.85;4.90;;;;;;;22.71;100.00;100017.38;5586454;31;33624;-68
2023/06/10 08:29:17;;;;;;;8.15;5.10;;;;;;;23.24;100.00;100015.66;5586340;31;34503;-69
2023/06/10 08:32:23;;;;;;;5.60;4.57;;;;;;;24.21;100.00;100015.19;5585418;31;33512;-69
2023/06/10 08:35:29;;;;;;;6.25;4.60;;;;;;;24.61;100.00;100020.72;5571519;31;33810;-69
2023/06/10 08:38:33;;;;;;;9.90;4.68;;;;;;;25.19;100.00;100009.66;5576627;31;34494;-69
2023/06/10 08:41:44;;;;;;;6.85;4.20;;;;;;;26.24;90.01;100008.59;5565792;32;33858;-69
2023/06/10 08:44:55;;;;;;;7.32;4.70;;;;;;;27.24;83.57;100010.91;5566026;32;34019;-70
2023/06/10 08:48:00;;;;;;;4.72;4.28;;;;;;;26.35;83.56;100003.91;5566797;32;34785;-70
2023/06/10 08:51:05;;;;;;;5.32;3.97;;;;;;;27.34;76.89;100008.09;5566885;32;33699;-69
2023/06/10 08:54:21;;;;;;;5.35;4.20;;;;;;;27.38;76.82;100006.44;5566571;32;33979;-69
2023/06/10 08:57:26;;;;;;;6.78;4.50;;;;;;;26.47;80.02;99996.25;5567003;32;34477;-68
2023/06/10 09:00:32;;;;;;;6.32;4.80;;;;;;;26.35;83.45;99991.13;5566330;32;34372;-68
2023/06/10 09:03:40;;;;;;;6.70;4.45;;;;;;;27.76;73.17;99992.97;5566547;32;34214;-69
2023/06/10 09:06:46;;;;;;;6.10;4.85;;;;;;;28.68;66.93;99999.66;5566615;32;34438;-68
2023/06/10 09:09:53;;;;;;;5.10;4.60;;;;;;;29.07;62.42;99990.31;5566492;31;34027;-69
2023/06/10 09:12:59;;;;;;;6.43;4.90;;;;;;;28.13;65.50;99978.66;5569984;31;33873;-69
2023/06/10 09:16:04;;;;;;;6.10;4.70;;;;;;;27.44;66.31;99979.94;5578023;31;34452;-69
2023/06/10 09:19:11;;;;;;;5.35;4.85;;;;;;;25.59;84.53;99974.31;5580796;31;34941;-70
2023/06/10 09:22:17;;;;;;;6.62;5.40;;;;;;;26.30;81.09;99972.13;5576902;31;34226;-69
2023/06/10 09:25:37;;;;;;;5.75;5.18;;;;;;;26.02;83.28;99971.97;5571271;31;33921;-69
2023/06/10 09:28:52;;;;;;;8.05;4.75;;;;;;;26.38;79.48;99973.44;5583910;31;33780;-69
2023/06/10 09:31:59;;;;;;;6.07;5.47;;;;;;;26.22;77.36;99961.03;5571612;31;34498;-69
2023/06/10 09:35:09;;;;;;;10.43;5.65;;;;;;;24.13;100.00;99966.88;5573725;31;33657;-69
2023/06/10 09:38:21;;;;;;;8.20;6.20;;;;;;;24.12;100.00;99957.13;5585426;31;34018;-69
2023/06/10 09:41:33;;;;;;;9.48;7.10;;;;;;;23.83;100.00;99962.97;5584893;31;34463;-68
2023/06/10 09:44:39;;;;;;;7.82;7.00;;;;;;;22.95;100.00;99964.56;5578705;31;34461;-68
2023/06/10 09:47:51;;;;;;;7.57;6.87;;;;;;;23.02;100.00;99966.25;5575551;31;33839;-68
2023/06/10 09:50:56;;;;;;;11.15;7.43;;;;;;;23.40;100.00;99965.97;5573602;31;33866;-67
2023/06/10 09:54:03;;;;;;;8.30;7.50;;;;;;;23.05;100.00;99969.25;5576228;31;33833;-69
2023/06/10 09:57:11;;;;;;;9.27;8.25;;;;;;;23.09;100.00;99964.16;5562924;31;33578;-67
2023/06/10 10:00:16;;;;;;;10.50;9.50;;;;;;;22.90;100.00;99964.53;5576008;31;33912;-68
2023/06/10 10:03:23;;;;;;;12.63;10.32;;;;;;;23.00;100.00;99961.09;5576979;31;34585;-68
2023/06/10 10:06:29;;;;;;;10.32;9.32;;;;;;;22.98;100.00;99962.44;5580521;31;35039;-68
2023/06/10 10:09:36;;;;;;;10.60;9.65;;;;;;;23.02;100.00;99963.56;5587876;31;33162;-68
2023/06/10 10:12:42;;;;;;;10.40;9.15;;;;;;;22.93;100.00;99960.53;5587045;31;33706;-68
2023/06/10 10:15:47;;;;;;;15.93;10.20;;;;;;;22.20;100.00;99966.56;5587958;31;33797;-68
2023/06/10 10:18:55;;;;;;;11.02;9.90;;;;;;;22.42;100.00;99961.91;5587785;31;33517;-68
2023/06/10 10:22:15;;;;;;;10.80;9.47;;;;;;;23.45;100.00;99959.81;5580820;31;34672;-69
2023/06/10 10:25:34;;;;;;;8.57;7.68;;;;;;;23.89;100.00;99954.87;5587639;31;34682;-69
2023/06/10 10:28:47;;;;;;;9.18;8.27;;;;;;;25.40;92.11;99956.94;5587803;31;33855;-68
2023/06/10 10:31:56;;;;;;;10.15;8.27;;;;;;;25.22;87.34;99943.97;5587550;31;34459;-69
2023/06/10 10:35:17;;;;;;;9.70;8.30;;;;;;;24.48;99.28;99945.31;5587827;31;34662;-68
2023/06/10 10:38:22;;;;;;;7.32;6.55;;;;;;;24.81;89.25;99945.84;5587819;31;33453;-68
2023/06/10 10:41:28;;;;;;;6.43;5.80;;;;;;;25.21;85.54;99945.03;5587935;31;34826;-69
2023/06/10 10:44:33;;;;;;;6.18;5.57;;;;;;;26.02;77.11;99940.16;5587743;31;33884;-70
2023/06/10 10:47:44;;;;;;;5.55;5.03;;;;;;;28.58;63.45;99947.13;5587779;31;35281;-70
2023/06/10 10:50:57;;;;;;;6.33;5.73;;;;;;;29.19;58.42;99953.22;5587204;31;33671;-69
2023/06/10 10:54:12;;;;;;;6.50;4.87;;;;;;;29.81;56.97;99940.03;5587160;31;33883;-70
2023/06/10 10:57:22;;;;;;;9.38;5.53;;;;;;;31.01;50.72;99937.53;5587751;31;33630;-69
2023/06/10 11:00:27;;;;;;;;;;;;;;;30.70;51.81;99937.47;5587505;31;34027;-69
2023/06/10 11:03:43;;;;;;;6.95;4.90;;;;;;;30.93;51.54;99924.59;5587069;31;34302;-69
2023/06/10 11:06:54;;;;;;;4.70;4.22;;;;;;;30.77;51.12;99926.09;5587675;31;33841;-68
2023/06/10 11:10:13;;;;;;;6.20;4.85;;;;;;;29.10;52.95;99913.22;5586923;31;33860;-70
2023/06/10 11:13:20;;;;;;;5.80;4.78;;;;;;;29.51;53.54;99914.12;5587422;31;34860;-70
2023/06/10 11:16:30;;;;;;;6.20;5.60;;;;;;;29.22;54.99;99916.31;5586623;31;34485;-68
2023/06/10 11:19:38;;;;;;;8.45;6.00;;;;;;;28.31;56.67;99904.19;5583719;31;33773;-68
2023/06/10 11:22:59;;;;;;;7.03;6.40;;;;;;;27.51;64.22;99910.41;5568860;31;33835;-69
2023/06/10 11:26:13;;;;;;;7.62;6.95;;;;;;;25.70;77.16;99905.28;5568247;31;33911;-69
2023/06/10 11:29:20;;;;;;;10.55;6.93;;;;;;;25.32;84.61;99905.94;5568670;31;33819;-69
2023/06/10 11:32:32;;;;;;;8.77;7.87;;;;;;;25.05;86.21;99900.81;5567375;31;33977;-68
2023/06/10 11:35:39;;;;;;;10.60;8.25;;;;;;;25.60;95.28;99899.06;5584323;31;33582;-68
2023/06/10 11:38:44;;;;;;;8.02;7.22;;;;;;;25.64;89.49;99900.13;5587405;31;33611;-69
2023/06/10 11:41:52;;;;;;;10.00;6.57;;;;;;;25.83;79.04;99890.25;5587080;31;33971;-67
2023/06/10 11:44:57;;;;;;;8.65;6.15;;;;;;;25.05;87.41;99887.25;5579145;31;34351;-69
2023/06/10 11:48:03;;;;;;;6.78;5.30;;;;;;;25.83;80.68;99890.25;5577791;31;33885;-70
2023/06/10 11:51:08;;;;;;;5.90;5.03;;;;;;;25.63;80.21;99890.34;5577652;31;33776;-69
2023/06/10 11:54:15;;;;;;;5.55;4.93;;;;;;;25.27;81.72;99890.44;5567477;32;34716;-70
2023/06/10 11:57:20;;;;;;;5.10;4.60;;;;;;;25.66;79.42;99892.53;5567337;32;33810;-69
2023/06/10 12:00:25;;;;;;;8.02;4.40;;;;;;;27.10;71.28;99892.88;5567670;32;33551;-70
2023/06/10 12:03:37;;;;;;;5.25;4.00;;;;;;;29.73;57.93;99891.50;5566611;32;34433;-69
2023/06/10 12:06:51;;;;;;;6.40;4.10;;;;;;;34.62;45.12;99887.47;5567544;32;33909;-70
2023/06/10 12:10:00;;;;;;;3.87;3.30;;;;;;;36.57;40.52;99891.81;5566713;32;33650;-70
2023/06/10 12:13:23;;;;;;;3.10;2.80;;;;;;;37.76;34.07;99900.81;5567175;32;33678;-71
2023/06/10 12:16:29;;;;;;;2.85;2.60;;;;;;;39.77;31.38;99880.09;5566451;32;33527;-72
2023/06/10 12:19:38;;;;;;;5.10;1.80;;;;;;;36.15;34.92;99883.12;5566549;32;33995;-71
2023/06/10 12:22:45;;;;;;;2.25;1.95;;;;;;;38.86;31.79;99874.59;5567412;32;33587;-71
2023/06/10 12:25:54;;;;;;;3.72;1.70;;;;;;;33.74;40.57;99864.91;5567093;32;34422;-71
2023/06/10 12:28:59;;;;;;;1.67;1.50;;;;;;;37.27;32.72;99864.47;5567051;32;33905;-71
2023/06/10 12:32:07;;;;;;;2.22;1.58;;;;;;;33.14;39.47;99855.78;5567233;32;34394;-72
2023/06/10 12:35:17;;;;;;;2.62;1.65;;;;;;;33.37;38.27;99844.53;5567310;32;34532;-69
2023/06/10 12:38:24;;;;;;;1.95;1.70;;;;;;;34.88;35.70;99838.44;5567228;32;34013;-71
2023/06/10 12:41:29;;;;;;;4.77;1.53;;;;;;;35.67;35.71;99842.63;5566643;32;33786;-73
2023/06/10 12:44:35;;;;;;;5.43;1.35;;;;;;;38.73;31.51;99826.03;5566921;32;33848;-71
2023/06/10 12:47:41;;;;;;;3.72;1.65;;;;;;;40.02;31.19;99833.19;5567019;32;33996;-70
2023/06/10 12:50:52;;;;;;;2.67;1.80;;;;;;;33.19;41.69;99819.91;5566895;32;33569;-72
2023/06/10 12:53:56;;;;;;;2.47;1.67;;;;;;;31.01;47.12;99828.78;5566669;32;33594;-71
2023/06/10 12:57:01;;;;;;;4.50;1.87;;;;;;;28.82;52.02;99814.91;5565983;32;33697;-72
2023/06/10 13:00:08;;;;;;;2.60;1.73;;;;;;;31.29;48.30;99815.66;5566816;32;33836;-70
2023/06/10 13:03:13;;;;;;;5.43;1.70;;;;;;;33.25;42.31;99817.78;5566486;32;34369;-71
2023/06/10 13:06:20;;;;;;;2.20;1.80;;;;;;;33.50;40.59;99822.28;5566636;32;34478;-68
2023/06/10 13:09:24;;;;;;;2.03;1.83;;;;;;;33.19;42.08;99819.91;5570952;31;33650;-70
2023/06/10 13:12:30;;;;;;;2.05;1.65;;;;;;;33.30;41.20;99814.03;5566802;32;34031;-71
2023/06/10 13:15:50;;;;;;;4.97;1.70;;;;;;;34.94;38.03;99818.91;5572545;31;33916;-71
2023/06/10 13:18:55;;;;;;;2.50;2.10;;;;;;;33.70;40.08;99814.41;5565820;32;33858;-71
2023/06/10 13:22:00;;;;;;;2.37;1.80;;;;;;;32.65;41.80;99809.75;5579184;31;34315;-70
2023/06/10 13:25:09;;;;;;;2.17;1.80;;;;;;;29.39;49.13;99799.03;5580048;31;33873;-71
2023/06/10 13:28:15;;;;;;;11.27;2.05;;;;;;;27.39;55.89;99801.00;5565936;32;33868;-71
2023/06/10 13:31:20;;;;;;;2.53;2.20;;;;;;;26.51;62.98;99798.72;5580884;31;33941;-69
2023/06/10 13:34:25;;;;;;;3.35;2.17;;;;;;;25.01;71.65;99802.84;5586012;31;34633;-70
2023/06/10 13:37:29;;;;;;;4.35;2.28;;;;;;;25.76;71.06;99802.78;5572162;31;34108;-71
2023/06/10 13:40:34;;;;;;;5.40;2.20;;;;;;;31.82;48.58;99809.94;5579116;31;35036;-71
2023/06/10 13:43:40;;;;;;;4.43;2.15;;;;;;;31.98;46.35;99802.06;5586013;31;33903;-71
2023/06/10 13:46:44;;;;;;;3.37;2.20;;;;;;;32.24;45.12;99805.59;5585288;31;33959;-71
2023/06/10 13:49:53;;;;;;;2.85;2.30;;;;;;;32.20;44.15;99806.56;5575705;31;33789;-71
2023/06/10 13:52:57;;;;;;;6.03;2.30;;;;;;;32.00;45.41;99815.47;5573974;31;33891;-72
2023/06/10 13:56:04;;;;;;;5.30;2.90;;;;;;;29.42;53.88;99816.75;5575337;31;33695;-71
2023/06/10 13:59:08;;;;;;;3.03;2.03;;;;;;;33.62;45.49;99824.31;5579990;31;34859;-68
2023/06/10 14:02:12;;;;;;;2.65;1.80;;;;;;;35.16;40.86;99818.47;5585524;31;33958;-71
2023/06/10 14:05:17;;;;;;;2.10;1.90;;;;;;;35.87;38.62;99812.44;5585258;31;34578;-70
2023/06/10 14:08:22;;;;;;;2.03;1.70;;;;;;;32.57;43.72;99816.84;5584467;31;33975;-71
2023/06/10 14:11:27;;;;;;;3.60;1.60;;;;;;;28.43;53.62;99820.75;5584165;31;33769;-71
2023/06/10 14:14:33;;;;;;;4.75;3.17;;;;;;;25.84;65.39;99803.03;5584709;31;33921;-70
2023/06/10 14:17:38;;;;;;;1.58;1.48;;;;;;;25.20;69.81;99807.66;5585152;31;34403;-70
2023/06/10 14:20:42;;;;;;;3.10;1.65;;;;;;;24.37;79.06;99791.81;5584285;31;33841;-70
2023/06/10 14:23:48;;;;;;;3.37;1.90;;;;;;;23.83;89.78;99803.16;5583286;31;33915;-70
2023/06/10 14:26:52;;;;;;;2.30;2.10;;;;;;;23.96;90.66;99796.41;5584546;31;34199;-70